CheckWX is a tool to help pilots better visualize weather data.  It is not intended as a substitute for an official pre-flight weather briefing.

22:57:54 UTC

PAWN METAR
Noatak Airport
Noatak, Alaska, USA
Current

23 mins ago

PAWN 232235Z AUTO 13007KT 2SM -SN SCT010 OVC016 M22/M24 A3023 RMK AO2 P0000 FZRANO
Observed
Feb-23 @ 22:35 UTC
Wind
  • 130° at 7 KTS
Visibility
2 SM
Flight Rules
IFR
Conditions
Light Snow
Cloud Levels
  • Scattered at 1,000' AGL
  • Overcast at 1,600' AGL
Temperature
-22°C / -8°F
Dewpoint
-24°C / -11°F
Humidity
84%
Altimeter
30.23" Hg
Pressure
1023.72 hPa
Current Rain
0.01"
Previous

1 hour ago

PAWN 232156Z AUTO 13008KT 1 1/4SM -SN OVC010 M22/M25 A3023 RMK AO2 CIG 008V012 SLP253 P0000 T12221250 FZRANO
Observed
Feb-23 @ 21:56 UTC
Wind
  • 130° at 8 KTS
Visibility
1 1/4 SM
Flight Rules
IFR
Conditions
Light Snow
Cloud Levels
  • Overcast at 1,000' AGL
Temperature
-22°C / -8°F
Dewpoint
-25°C / -13°F
Humidity
77%
Altimeter
30.23" Hg
Pressure
1023.72 hPa
Current Rain
0.01"
Previous

1 hour ago

PAWN 232149Z AUTO 13011KT 1SM -SN BR BKN010 OVC019 M22/M24 A3023 RMK AO2 P0000 FZRANO
Observed
Feb-23 @ 21:49 UTC
Wind
  • 130° at 11 KTS
Visibility
1 SM
Flight Rules
IFR
Conditions
Light Snow, Mist
Cloud Levels
  • Broken at 1,000' AGL
  • Overcast at 1,900' AGL
Temperature
-22°C / -8°F
Dewpoint
-24°C / -11°F
Humidity
84%
Altimeter
30.23" Hg
Pressure
1023.72 hPa
Current Rain
0.01"